Terminal Aerodrome Forecast
Issued by NWS

Home | Current Version | Previous Version | Text Only | Print | Product List | Glossary On
Versions: 1 2 3 4 5 6 7 8 9 10 11 12 13 14 15 16 17 18 19 20 21
000
FTUS41 KBGM 291700
TAFRME
TAF
KRME 291739Z 2918/3018 VRB04KT P6SM SCT250
     FM300300 12007KT P6SM OVC120
     FM300700 14010KT 2SM -SHSN BR OVC022
     FM301200 24010KT P6SM -SHRASN OVC015
     FM301500 27012G22KT P6SM OVC025=

USA.gov is the U.S. government's official web portal to all federal, state and local government web resources and services.